Nearby METAR Reports

 

KDPA - Chicago/Dupage, Illinois, USA
Distance from station: NW 11mi, 18km
Updated: Sun, 25-Jul-2021 7:52am CDT
Clear
Clear
 Wind from NNW
Wind: NNW 6 mph , 9 km/h
Temperature: 75°F , 24°C
Dew Point: 66°F , 19°C
Humidity: 74%
Barometer: 29.96 inHg , 1014.6 hPa
Clouds: Clear
Visibility: 10 miles , 16 km
2021/07/25 12:52 KDPA 251252Z 33005KT 10SM CLR 24/19 A2996 RMK AO2 SLP140 T02440194
KLOT - Romeoville/Chi, Illinois, USA
Distance from station: S 13mi, 21km
Updated: Sun, 25-Jul-2021 8:30am CDT
Clear
Clear
 Wind from NNW
Wind: NNW 5 mph , 7 km/h
Temperature: 77°F , 25°C
Dew Point: 72°F , 22°C
Humidity: 83%
Barometer: 29.97 inHg , 1014.9 hPa
Clouds: Clear
Visibility: 10 miles , 16 km
2021/07/25 13:30 KLOT 251330Z AUTO 33004KT 10SM CLR 25/22 A2997 RMK AO2 T02510217
 
KORD - Chicago O'Hare, Illinois, USA
Distance from station: NE 17mi, 27km
Updated: Sun, 25-Jul-2021 7:51am CDT
Few Clouds
Few Clouds
 Wind from NW
Wind: NW 3 mph , 6 km/h
Temperature: 77°F , 25°C
Dew Point: 68°F , 20°C
Humidity: 74%
Barometer: 29.95 inHg , 1014.2 hPa
Clouds: Few Clouds
Visibility: 10 miles , 16 km
Cloud details: Few Clouds 6000 ft
Few Clouds 25000 ft
2021/07/25 12:51 KORD 251251Z 31003KT 10SM FEW060 FEW250 25/20 A2995 RMK AO2 SLP136 T02500200 $
KARR - Chicago/Aurora, Illinois, USA
Distance from station: W 19mi, 30km
Updated: Sun, 25-Jul-2021 7:52am CDT
Clear
Clear
 Wind from WNW
Wind: WNW 5 mph , 7 km/h
Temperature: 72°F , 22°C
Dew Point: 70°F , 21°C
Humidity: 94%
Barometer: 29.97 inHg , 1014.9 hPa
Clouds: Clear
Visibility: 10 miles , 16 km
2021/07/25 12:52 KARR 251252Z 29004KT 10SM CLR 22/21 A2997 RMK AO2 SLP144 T02220206
 
KJOT - Joliet, Illinois, USA
Distance from station: S 19mi, 31km
Updated: Sun, 25-Jul-2021 8:35am CDT
Clear
Clear
 Wind from NNW
Wind: NNW 5 mph , 7 km/h
Temperature: 79°F , 26°C
Dew Point: 72°F , 22°C
Humidity: 79%
Barometer: 29.97 inHg , 1014.9 hPa
Clouds: Clear
Visibility: 10 miles , 16 km
2021/07/25 13:35 KJOT 251335Z AUTO 34004KT 10SM CLR 26/22 A2997 RMK AO2 T02620221
KMDW - Chicago, Illinois, USA
Distance from station: E 19mi, 31km
Updated: Sun, 25-Jul-2021 7:53am CDT
Few Clouds
Few Clouds
 Wind from NW
Wind: NW 6 mph , 9 km/h
Temperature: 79°F , 26°C
Dew Point: 70°F , 21°C
Humidity: 74%
Barometer: 29.95 inHg , 1014.2 hPa
Clouds: Few Clouds
Visibility: 10 miles , 16 km
Cloud details: Few Clouds 5500 ft
Few Clouds 25000 ft
2021/07/25 12:53 KMDW 251253Z 32005KT 10SM FEW055 FEW250 26/21 A2995 RMK AO2 SLP129 T02560206 $
 
KPWK - Palwaukee, Illinois, USA
Distance from station: NNE 25mi, 41km
Updated: Sun, 25-Jul-2021 7:52am CDT
Clear
Clear
 Wind from WNW
Wind: WNW 3 mph , 6 km/h
Temperature: 79°F , 26°C
Dew Point: 70°F , 21°C
Humidity: 74%
Barometer: 29.96 inHg , 1014.6 hPa
Clouds: Clear
Visibility: 10 miles , 16 km
2021/07/25 12:52 KPWK 251252Z 30003KT 10SM CLR 26/21 A2996 RMK AO2 SLP139 T02560206
KC09 - Morris-Washburn, Illinois, USA
Distance from station: SSW 29mi, 47km
Updated: Sun, 25-Jul-2021 8:35am CDT
Clear
Clear
 Wind from calm
Wind: Calm
Temperature: 77°F , 25°C
Dew Point: 72°F , 22°C
Humidity: 83%
Barometer: 29.96 inHg , 1014.6 hPa
Clouds: Clear
Visibility: 10 miles , 16 km
2021/07/25 13:35 KC09 251335Z AUTO 00000KT 10SM CLR 25/22 A2996 RMK AO2 T02470221
 
KDKB - De Kalb, Illinois, USA
Distance from station: WNW 31mi, 50km
Updated: Sun, 25-Jul-2021 8:35am CDT
Clear
Clear
 Wind from NNW
Wind: NNW 5 mph , 7 km/h
Temperature: 75°F , 24°C
Dew Point: 68°F , 20°C
Humidity: 78%
Barometer: 30.00 inHg , 1015.9 hPa
Clouds: Clear
Visibility: 10 miles , 16 km
2021/07/25 13:35 KDKB 251335Z AUTO 34004KT 10SM CLR 24/20 A3000 RMK AO2 T02370196
KIGQ - Chicago/Lansing, Illinois, USA
Distance from station: ESE 35mi, 57km
Updated: Sun, 25-Jul-2021 8:35am CDT
Clear
Clear
 Wind from WNW
Wind: WNW 5 mph , 7 km/h
Temperature: 79°F , 26°C
Dew Point: 73°F , 23°C
Humidity: 84%
Barometer: 29.96 inHg , 1014.6 hPa
Clouds: Clear
Visibility: 10 miles , 16 km
2021/07/25 13:35 KIGQ 251335Z AUTO 30004KT 10SM CLR 26/23 A2996 RMK AO2 T02610227
 
KGYY - Gary Regional, Indiana, USA
Distance from station: ESE 38mi, 62km
Updated: Sun, 25-Jul-2021 7:45am CDT
Clear
Clear
 Wind from WNW
Wind: WNW 3 mph , 6 km/h
Temperature: 77°F , 25°C
Dew Point: 73°F , 23°C
Humidity: 89%
Barometer: 29.95 inHg , 1014.2 hPa
Clouds: Clear
Visibility: 7 miles , 11 km
2021/07/25 12:45 KGYY 251245Z 30003KT 7SM CLR 25/23 A2995
KUGN - Waukegan, Illinois, USA
Distance from station: NNE 45mi, 73km
Updated: Sun, 25-Jul-2021 7:55am CDT
Clear
Clear
 Wind from NW
Wind: NW 6 mph , 9 km/h
Temperature: 75°F , 24°C
Dew Point: 64°F , 18°C
Humidity: 69%
Barometer: 29.95 inHg , 1014.2 hPa
Clouds: Clear
Visibility: 10 miles , 16 km
2021/07/25 12:55 KUGN 251255Z 31005KT 10SM CLR 24/18 A2995 RMK AO2 SLP127 T02440183
 
KRPJ - Rochelle/Koritz, Illinois, USA
Distance from station: W 50mi, 80km
Updated: Sun, 25-Jul-2021 8:35am CDT
Clear
Clear
 Wind from N
Wind: N 5 mph , 7 km/h
Temperature: 73°F , 23°C
Dew Point: 66°F , 19°C
Humidity: 78%
Barometer: 29.99 inHg , 1015.6 hPa
Clouds: Clear
Visibility: 10 miles , 16 km
2021/07/25 13:35 KRPJ 251335Z AUTO 35004KT 10SM CLR 23/19 A2999 RMK AO2 T02310188 TSNO